sensor_id;sensor_type;location;lat;lon;timestamp;pressure;altitude;pressure_sealevel;temperature;humidity
62895;BME280;49204;44.916;37.998;2023-02-28T00:01:22;101914.17;;;12.52;44.21
62895;BME280;49204;44.916;37.998;2023-02-28T00:03:50;101907.60;;;12.51;44.36
62895;BME280;49204;44.916;37.998;2023-02-28T00:06:18;101905.89;;;12.48;44.42
62895;BME280;49204;44.916;37.998;2023-02-28T00:08:47;101911.17;;;12.48;44.58
62895;BME280;49204;44.916;37.998;2023-02-28T00:11:15;101912.96;;;12.48;44.47
62895;BME280;49204;44.916;37.998;2023-02-28T00:13:44;101915.25;;;12.45;44.64
62895;BME280;49204;44.916;37.998;2023-02-28T00:16:16;101915.28;;;12.44;44.46
62895;BME280;49204;44.916;37.998;2023-02-28T00:18:44;101911.97;;;12.35;44.38
62895;BME280;49204;44.916;37.998;2023-02-28T00:21:14;101915.26;;;12.29;44.34
62895;BME280;49204;44.916;37.998;2023-02-28T00:23:41;101907.91;;;12.24;44.40
62895;BME280;49204;44.916;37.998;2023-02-28T00:26:10;101906.27;;;12.20;44.40
62895;BME280;49204;44.916;37.998;2023-02-28T00:28:38;101901.02;;;12.18;44.50
62895;BME280;49204;44.916;37.998;2023-02-28T00:31:06;101905.05;;;12.15;44.51
62895;BME280;49204;44.916;37.998;2023-02-28T00:33:35;101908.66;;;12.12;44.44
62895;BME280;49204;44.916;37.998;2023-02-28T00:36:09;101899.95;;;12.09;44.40
62895;BME280;49204;44.916;37.998;2023-02-28T00:38:32;101899.62;;;12.05;44.41
62895;BME280;49204;44.916;37.998;2023-02-28T00:41:00;101901.84;;;12.04;44.56
62895;BME280;49204;44.916;37.998;2023-02-28T00:43:31;101894.42;;;12.02;44.57
62895;BME280;49204;44.916;37.998;2023-02-28T00:45:58;101895.70;;;12.03;44.71
62895;BME280;49204;44.916;37.998;2023-02-28T00:48:26;101893.92;;;12.04;44.80
62895;BME280;49204;44.916;37.998;2023-02-28T00:50:54;101895.73;;;12.02;44.75
62895;BME280;49204;44.916;37.998;2023-02-28T00:53:22;101895.81;;;11.98;44.67
62895;BME280;49204;44.916;37.998;2023-02-28T00:55:50;101899.41;;;11.96;44.63
62895;BME280;49204;44.916;37.998;2023-02-28T00:58:18;101902.16;;;11.91;44.60
62895;BME280;49204;44.916;37.998;2023-02-28T01:00:46;101903.11;;;11.87;44.61
62895;BME280;49204;44.916;37.998;2023-02-28T01:03:16;101902.75;;;11.85;44.64
62895;BME280;49204;44.916;37.998;2023-02-28T01:05:44;101899.32;;;11.81;44.72
62895;BME280;49204;44.916;37.998;2023-02-28T01:08:12;101897.64;;;11.78;44.74
62895;BME280;49204;44.916;37.998;2023-02-28T01:10:40;101897.71;;;11.75;44.78
62895;BME280;49204;44.916;37.998;2023-02-28T01:13:08;101892.47;;;11.74;44.74
62895;BME280;49204;44.916;37.998;2023-02-28T01:15:36;101898.63;;;11.73;44.76
62895;BME280;49204;44.916;37.998;2023-02-28T01:18:04;101902.20;;;11.72;44.75
62895;BME280;49204;44.916;37.998;2023-02-28T01:20:32;101908.80;;;11.72;44.95
62895;BME280;49204;44.916;37.998;2023-02-28T01:23:01;101897.87;;;11.69;44.85
62895;BME280;49204;44.916;37.998;2023-02-28T01:25:28;101908.36;;;11.71;44.83
62895;BME280;49204;44.916;37.998;2023-02-28T01:27:56;101907.54;;;11.69;44.88
62895;BME280;49204;44.916;37.998;2023-02-28T01:30:26;101913.73;;;11.68;44.99
62895;BME280;49204;44.916;37.998;2023-02-28T01:32:53;101915.45;;;11.69;44.94
62895;BME280;49204;44.916;37.998;2023-02-28T01:35:21;101907.11;;;11.69;44.93
62895;BME280;49204;44.916;37.998;2023-02-28T01:37:49;101909.66;;;11.72;45.15
62895;BME280;49204;44.916;37.998;2023-02-28T01:40:17;101908.27;;;11.75;45.38
62895;BME280;49204;44.916;37.998;2023-02-28T01:42:45;101901.14;;;11.79;45.43
62895;BME280;49204;44.916;37.998;2023-02-28T01:45:26;101907.17;;;11.84;45.68
62895;BME280;49204;44.916;37.998;2023-02-28T01:48:03;101903.61;;;11.85;45.47
62895;BME280;49204;44.916;37.998;2023-02-28T01:50:31;101895.30;;;11.84;45.45
62895;BME280;49204;44.916;37.998;2023-02-28T01:52:59;101906.71;;;11.85;45.50
62895;BME280;49204;44.916;37.998;2023-02-28T01:55:30;101910.67;;;11.85;45.48
62895;BME280;49204;44.916;37.998;2023-02-28T01:57:58;101902.75;;;11.85;45.51
62895;BME280;49204;44.916;37.998;2023-02-28T02:00:27;101907.07;;;11.87;45.74
62895;BME280;49204;44.916;37.998;2023-02-28T02:02:59;101902.22;;;11.90;45.73
62895;BME280;49204;44.916;37.998;2023-02-28T02:05:26;101903.94;;;11.91;45.64
62895;BME280;49204;44.916;37.998;2023-02-28T02:07:55;101907.86;;;11.92;45.59
62895;BME280;49204;44.916;37.998;2023-02-28T02:10:36;101905.69;;;11.92;45.62
62895;BME280;49204;44.916;37.998;2023-02-28T02:15:37;101907.07;;;11.87;45.50
62895;BME280;49204;44.916;37.998;2023-02-28T02:18:12;101910.28;;;11.82;45.35
62895;BME280;49204;44.916;37.998;2023-02-28T02:25:57;101930.80;;;11.71;45.34
62895;BME280;49204;44.916;37.998;2023-02-28T02:28:51;101919.97;;;11.64;45.38
62895;BME280;49204;44.916;37.998;2023-02-28T02:33:59;101924.03;;;11.61;45.43
62895;BME280;49204;44.916;37.998;2023-02-28T02:36:19;101928.87;;;11.59;45.42
62895;BME280;49204;44.916;37.998;2023-02-28T02:41:31;101929.86;;;11.55;45.43
62895;BME280;49204;44.916;37.998;2023-02-28T02:46:44;101923.76;;;11.53;45.47
62895;BME280;49204;44.916;37.998;2023-02-28T02:49:17;101917.20;;;11.52;45.72
62895;BME280;49204;44.916;37.998;2023-02-28T02:51:44;101925.47;;;11.54;45.87
62895;BME280;49204;44.916;37.998;2023-02-28T02:54:17;101925.05;;;11.55;45.95
62895;BME280;49204;44.916;37.998;2023-02-28T02:56:43;101919.80;;;11.53;45.95
62895;BME280;49204;44.916;37.998;2023-02-28T02:59:12;101922.01;;;11.52;46.13
62895;BME280;49204;44.916;37.998;2023-02-28T03:01:40;101916.34;;;11.51;46.03
62895;BME280;49204;44.916;37.998;2023-02-28T03:04:10;101910.63;;;11.50;45.99
62895;BME280;49204;44.916;37.998;2023-02-28T03:06:38;101917.23;;;11.50;45.96
62895;BME280;49204;44.916;37.998;2023-02-28T03:09:06;101914.59;;;11.50;45.96
62895;BME280;49204;44.916;37.998;2023-02-28T03:11:34;101914.09;;;11.52;45.92
62895;BME280;49204;44.916;37.998;2023-02-28T03:27:24;101912.05;;;11.47;45.96
62895;BME280;49204;44.916;37.998;2023-02-28T03:30:02;101909.94;;;11.44;45.87
62895;BME280;49204;44.916;37.998;2023-02-28T03:32:24;101904.75;;;11.39;45.83
62895;BME280;49204;44.916;37.998;2023-02-28T03:35:01;101902.67;;;11.34;45.79
62895;BME280;49204;44.916;37.998;2023-02-28T03:37:29;101902.27;;;11.33;45.94
62895;BME280;49204;44.916;37.998;2023-02-28T03:40:01;101897.89;;;11.32;45.96
62895;BME280;49204;44.916;37.998;2023-02-28T03:42:31;101894.36;;;11.33;46.05
62895;BME280;49204;44.916;37.998;2023-02-28T03:45:04;101899.20;;;11.32;46.01
62895;BME280;49204;44.916;37.998;2023-02-28T03:50:03;101906.23;;;11.33;46.18
62895;BME280;49204;44.916;37.998;2023-02-28T03:52:31;101896.17;;;11.31;46.19
62895;BME280;49204;44.916;37.998;2023-02-28T03:55:00;101905.40;;;11.31;46.24
62895;BME280;49204;44.916;37.998;2023-02-28T03:57:38;101896.23;;;11.28;46.30
62895;BME280;49204;44.916;37.998;2023-02-28T04:00:07;101897.19;;;11.25;46.15
62895;BME280;49204;44.916;37.998;2023-02-28T04:02:37;101903.83;;;11.22;46.36
62895;BME280;49204;44.916;37.998;2023-02-28T04:05:06;101911.25;;;11.24;46.46
62895;BME280;49204;44.916;37.998;2023-02-28T04:07:34;101912.11;;;11.25;46.44
62895;BME280;49204;44.916;37.998;2023-02-28T04:10:03;101917.38;;;11.25;46.54
62895;BME280;49204;44.916;37.998;2023-02-28T04:12:31;101921.77;;;11.26;46.55
62895;BME280;49204;44.916;37.998;2023-02-28T04:15:00;101923.58;;;11.24;46.56
62895;BME280;49204;44.916;37.998;2023-02-28T04:17:27;101930.66;;;11.22;46.49
62895;BME280;49204;44.916;37.998;2023-02-28T04:19:55;101927.66;;;11.17;46.54
62895;BME280;49204;44.916;37.998;2023-02-28T04:22:24;101932.13;;;11.14;46.55
62895;BME280;49204;44.916;37.998;2023-02-28T04:24:54;101931.75;;;11.11;46.66
62895;BME280;49204;44.916;37.998;2023-02-28T04:27:22;101934.45;;;11.08;46.80
62895;BME280;49204;44.916;37.998;2023-02-28T04:29:50;101939.78;;;11.07;46.69
62895;BME280;49204;44.916;37.998;2023-02-28T04:32:17;101936.69;;;11.07;46.63
62895;BME280;49204;44.916;37.998;2023-02-28T04:34:45;101940.17;;;11.08;46.70
62895;BME280;49204;44.916;37.998;2023-02-28T04:37:13;101941.52;;;11.06;46.59
62895;BME280;49204;44.916;37.998;2023-02-28T04:39:41;101949.41;;;11.08;46.62
62895;BME280;49204;44.916;37.998;2023-02-28T04:42:09;101952.01;;;11.09;46.56
62895;BME280;49204;44.916;37.998;2023-02-28T04:44:37;101953.27;;;11.12;46.44
62895;BME280;49204;44.916;37.998;2023-02-28T04:47:05;101958.06;;;11.14;46.43
62895;BME280;49204;44.916;37.998;2023-02-28T04:49:32;101968.08;;;11.18;46.71
62895;BME280;49204;44.916;37.998;2023-02-28T04:52:00;101953.13;;;11.18;46.39
62895;BME280;49204;44.916;37.998;2023-02-28T04:54:28;101956.10;;;11.23;46.29
62895;BME280;49204;44.916;37.998;2023-02-28T04:56:56;101957.70;;;11.30;46.20
62895;BME280;49204;44.916;37.998;2023-02-28T04:59:24;101968.59;;;11.34;46.14
62895;BME280;49204;44.916;37.998;2023-02-28T05:01:51;101977.27;;;11.39;46.09
62895;BME280;49204;44.916;37.998;2023-02-28T05:04:19;101980.19;;;11.46;46.01
62895;BME280;49204;44.916;37.998;2023-02-28T05:06:47;101983.11;;;11.53;45.91
62895;BME280;49204;44.916;37.998;2023-02-28T05:09:15;101980.74;;;11.61;45.92
62895;BME280;49204;44.916;37.998;2023-02-28T05:11:42;101976.11;;;11.70;45.87
62895;BME280;49204;44.916;37.998;2023-02-28T05:14:11;101972.39;;;11.79;45.84
62895;BME280;49204;44.916;37.998;2023-02-28T05:16:39;101974.34;;;11.90;45.73
62895;BME280;49204;44.916;37.998;2023-02-28T05:19:07;101980.97;;;12.07;45.59
62895;BME280;49204;44.916;37.998;2023-02-28T05:21:36;101974.95;;;12.18;45.53
62895;BME280;49204;44.916;37.998;2023-02-28T05:24:05;101977.39;;;12.26;45.34
62895;BME280;49204;44.916;37.998;2023-02-28T05:26:37;101978.61;;;12.30;45.30
62895;BME280;49204;44.916;37.998;2023-02-28T05:29:05;101992.09;;;12.36;45.28
62895;BME280;49204;44.916;37.998;2023-02-28T05:31:33;101995.89;;;12.42;45.19
62895;BME280;49204;44.916;37.998;2023-02-28T05:34:01;101997.86;;;12.50;45.09
62895;BME280;49204;44.916;37.998;2023-02-28T05:36:30;101993.28;;;12.57;44.91
62895;BME280;49204;44.916;37.998;2023-02-28T05:38:58;101991.24;;;12.67;44.39
62895;BME280;49204;44.916;37.998;2023-02-28T05:41:26;101992.12;;;12.84;44.39
62895;BME280;49204;44.916;37.998;2023-02-28T05:43:54;101998.05;;;13.07;44.04
62895;BME280;49204;44.916;37.998;2023-02-28T05:46:22;102009.23;;;13.31;43.46
62895;BME280;49204;44.916;37.998;2023-02-28T05:48:49;102006.02;;;13.50;43.08
62895;BME280;49204;44.916;37.998;2023-02-28T05:51:17;102005.30;;;13.60;42.78
62895;BME280;49204;44.916;37.998;2023-02-28T05:53:45;102000.53;;;13.71;42.59
62895;BME280;49204;44.916;37.998;2023-02-28T05:56:14;102005.23;;;13.76;42.41
62895;BME280;49204;44.916;37.998;2023-02-28T05:58:43;101999.51;;;13.75;42.09
62895;BME280;49204;44.916;37.998;2023-02-28T06:01:30;101997.88;;;13.71;41.99
62895;BME280;49204;44.916;37.998;2023-02-28T06:03:52;101993.56;;;13.68;41.86
62895;BME280;49204;44.916;37.998;2023-02-28T06:06:20;102001.64;;;13.64;42.06
62895;BME280;49204;44.916;37.998;2023-02-28T06:08:48;102000.73;;;13.65;41.95
62895;BME280;49204;44.916;37.998;2023-02-28T06:11:15;102002.33;;;13.70;42.08
62895;BME280;49204;44.916;37.998;2023-02-28T06:13:44;102006.77;;;13.83;42.18
62895;BME280;49204;44.916;37.998;2023-02-28T06:16:11;102003.55;;;14.00;42.21
62895;BME280;49204;44.916;37.998;2023-02-28T06:18:39;102000.60;;;14.09;42.13
62895;BME280;49204;44.916;37.998;2023-02-28T06:21:07;102007.23;;;14.35;42.09
62895;BME280;49204;44.916;37.998;2023-02-28T06:23:35;102018.02;;;14.42;42.03
62895;BME280;49204;44.916;37.998;2023-02-28T06:26:03;102015.70;;;14.46;42.09
62895;BME280;49204;44.916;37.998;2023-02-28T06:28:31;102026.13;;;14.51;42.07
62895;BME280;49204;44.916;37.998;2023-02-28T06:30:59;102017.56;;;14.56;42.12
62895;BME280;49204;44.916;37.998;2023-02-28T06:33:26;102016.41;;;14.64;42.17
62895;BME280;49204;44.916;37.998;2023-02-28T06:35:54;102021.06;;;14.70;42.17
62895;BME280;49204;44.916;37.998;2023-02-28T06:38:22;102028.81;;;14.76;42.18
62895;BME280;49204;44.916;37.998;2023-02-28T06:40:56;102030.89;;;14.91;42.16
62895;BME280;49204;44.916;37.998;2023-02-28T06:43:28;102026.86;;;15.04;42.09
62895;BME280;49204;44.916;37.998;2023-02-28T06:45:54;102031.02;;;15.12;42.01
62895;BME280;49204;44.916;37.998;2023-02-28T06:48:22;102029.64;;;15.13;41.99
62895;BME280;49204;44.916;37.998;2023-02-28T06:50:50;102021.21;;;15.14;42.02
62895;BME280;49204;44.916;37.998;2023-02-28T06:53:18;102015.84;;;15.15;42.05
62895;BME280;49204;44.916;37.998;2023-02-28T06:55:46;102011.54;;;15.13;42.05
62895;BME280;49204;44.916;37.998;2023-02-28T06:58:14;102021.73;;;15.12;42.12
62895;BME280;49204;44.916;37.998;2023-02-28T07:00:42;102016.09;;;15.09;42.23
62895;BME280;49204;44.916;37.998;2023-02-28T07:03:11;102019.55;;;15.11;42.29
62895;BME280;49204;44.916;37.998;2023-02-28T07:05:39;102025.02;;;15.06;42.30
62895;BME280;49204;44.916;37.998;2023-02-28T07:08:07;102034.02;;;15.02;42.40
62895;BME280;49204;44.916;37.998;2023-02-28T07:10:36;102033.48;;;15.04;42.44
62895;BME280;49204;44.916;37.998;2023-02-28T07:13:04;102033.56;;;15.15;42.45
62895;BME280;49204;44.916;37.998;2023-02-28T07:15:32;102033.77;;;15.32;42.38
62895;BME280;49204;44.916;37.998;2023-02-28T07:18:00;102034.09;;;15.36;42.35
62895;BME280;49204;44.916;37.998;2023-02-28T07:20:28;102028.11;;;15.41;42.32
62895;BME280;49204;44.916;37.998;2023-02-28T07:22:55;102029.75;;;15.46;42.31
62895;BME280;49204;44.916;37.998;2023-02-28T07:25:23;102030.02;;;15.50;42.25
62895;BME280;49204;44.916;37.998;2023-02-28T07:27:51;102036.87;;;15.43;42.48
62895;BME280;49204;44.916;37.998;2023-02-28T07:30:20;102048.42;;;15.31;43.51
62895;BME280;49204;44.916;37.998;2023-02-28T07:32:48;102055.77;;;15.24;44.46
62895;BME280;49204;44.916;37.998;2023-02-28T07:35:15;102052.77;;;15.10;44.59
62895;BME280;49204;44.916;37.998;2023-02-28T07:37:43;102044.92;;;15.18;44.48
62895;BME280;49204;44.916;37.998;2023-02-28T07:40:11;102045.09;;;15.14;44.58
62895;BME280;49204;44.916;37.998;2023-02-28T07:42:40;102051.95;;;14.96;45.47
62895;BME280;49204;44.916;37.998;2023-02-28T07:45:09;102052.92;;;14.93;45.78
62895;BME280;49204;44.916;37.998;2023-02-28T07:47:38;102046.55;;;15.68;45.18
62895;BME280;49204;44.916;37.998;2023-02-28T07:50:07;102047.41;;;15.80;45.78
62895;BME280;49204;44.916;37.998;2023-02-28T07:52:36;102038.44;;;15.71;45.22
62895;BME280;49204;44.916;37.998;2023-02-28T07:55:04;102037.14;;;15.83;44.89
62895;BME280;49204;44.916;37.998;2023-02-28T07:57:33;102048.16;;;15.72;45.11
62895;BME280;49204;44.916;37.998;2023-02-28T08:00:02;102045.86;;;15.63;45.23
62895;BME280;49204;44.916;37.998;2023-02-28T08:02:31;102056.05;;;15.52;45.36
62895;BME280;49204;44.916;37.998;2023-02-28T08:04:59;102057.12;;;15.58;45.32
62895;BME280;49204;44.916;37.998;2023-02-28T08:07:27;102053.77;;;15.98;45.01
62895;BME280;49204;44.916;37.998;2023-02-28T08:09:56;102057.84;;;16.17;45.00
62895;BME280;49204;44.916;37.998;2023-02-28T08:12:24;102064.34;;;16.32;44.79
62895;BME280;49204;44.916;37.998;2023-02-28T08:14:52;102070.72;;;16.06;45.13
62895;BME280;49204;44.916;37.998;2023-02-28T08:17:20;102071.35;;;15.91;45.13
62895;BME280;49204;44.916;37.998;2023-02-28T08:19:47;102062.84;;;16.05;45.09
62895;BME280;49204;44.916;37.998;2023-02-28T08:22:15;102057.48;;;15.94;45.30
62895;BME280;49204;44.916;37.998;2023-02-28T08:24:43;102055.16;;;15.75;45.66
62895;BME280;49204;44.916;37.998;2023-02-28T08:27:11;102063.17;;;15.85;45.67
62895;BME280;49204;44.916;37.998;2023-02-28T08:29:39;102064.81;;;15.77;45.72
62895;BME280;49204;44.916;37.998;2023-02-28T08:32:07;102074.37;;;15.58;45.92
62895;BME280;49204;44.916;37.998;2023-02-28T08:34:35;102072.30;;;15.66;46.02
62895;BME280;49204;44.916;37.998;2023-02-28T08:37:02;102073.16;;;15.78;45.96
62895;BME280;49204;44.916;37.998;2023-02-28T08:39:30;102082.78;;;15.69;46.22
62895;BME280;49204;44.916;37.998;2023-02-28T08:41:59;102068.65;;;15.80;46.45
62895;BME280;49204;44.916;37.998;2023-02-28T08:44:27;102080.16;;;15.81;46.35
62895;BME280;49204;44.916;37.998;2023-02-28T08:46:55;102083.59;;;15.71;46.56
62895;BME280;49204;44.916;37.998;2023-02-28T08:49:22;102075.95;;;15.52;46.78
62895;BME280;49204;44.916;37.998;2023-02-28T08:51:50;102078.54;;;15.41;46.78
62895;BME280;49204;44.916;37.998;2023-02-28T08:54:18;102075.08;;;15.39;47.16
62895;BME280;49204;44.916;37.998;2023-02-28T08:56:46;102074.28;;;15.37;47.22
62895;BME280;49204;44.916;37.998;2023-02-28T08:59:13;102074.00;;;15.33;47.39
62895;BME280;49204;44.916;37.998;2023-02-28T09:01:41;102071.27;;;15.23;47.38
62895;BME280;49204;44.916;37.998;2023-02-28T09:04:10;102077.00;;;15.24;47.36
62895;BME280;49204;44.916;37.998;2023-02-28T09:06:38;102080.98;;;15.24;47.37
62895;BME280;49204;44.916;37.998;2023-02-28T09:09:05;102075.83;;;15.19;47.34
62895;BME280;49204;44.916;37.998;2023-02-28T09:11:34;102078.42;;;15.21;47.40
62895;BME280;49204;44.916;37.998;2023-02-28T09:14:02;102072.15;;;15.35;47.51
62895;BME280;49204;44.916;37.998;2023-02-28T09:16:30;102071.00;;;15.42;47.41
62895;BME280;49204;44.916;37.998;2023-02-28T09:18:59;102074.66;;;15.62;47.12
62895;BME280;49204;44.916;37.998;2023-02-28T09:21:26;102078.14;;;15.64;47.13
62895;BME280;49204;44.916;37.998;2023-02-28T09:23:54;102077.17;;;15.55;47.26
62895;BME280;49204;44.916;37.998;2023-02-28T09:26:23;102085.69;;;15.63;47.62
62895;BME280;49204;44.916;37.998;2023-02-28T09:28:53;102071.46;;;15.88;47.37
62895;BME280;49204;44.916;37.998;2023-02-28T09:31:24;102076.72;;;16.11;47.21
62895;BME280;49204;44.916;37.998;2023-02-28T09:33:53;102072.38;;;16.41;47.13
62895;BME280;49204;44.916;37.998;2023-02-28T09:36:21;102069.73;;;16.72;46.79
62895;BME280;49204;44.916;37.998;2023-02-28T09:38:49;102064.25;;;17.16;46.25
62895;BME280;49204;44.916;37.998;2023-02-28T09:41:19;102059.95;;;17.51;45.82
62895;BME280;49204;44.916;37.998;2023-02-28T09:43:49;102057.87;;;17.58;45.75
62895;BME280;49204;44.916;37.998;2023-02-28T09:46:27;102058.09;;;18.00;45.25
62895;BME280;49204;44.916;37.998;2023-02-28T09:48:55;102053.64;;;18.62;44.69
62895;BME280;49204;44.916;37.998;2023-02-28T09:51:27;102052.73;;;19.29;43.96
62895;BME280;49204;44.916;37.998;2023-02-28T09:53:52;102052.38;;;19.92;43.12
62895;BME280;49204;44.916;37.998;2023-02-28T09:56:22;102050.36;;;20.19;42.45
62895;BME280;49204;44.916;37.998;2023-02-28T09:59:10;102043.63;;;19.81;42.70
62895;BME280;49204;44.916;37.998;2023-02-28T10:06:51;102034.31;;;19.89;42.48
62895;BME280;49204;44.916;37.998;2023-02-28T10:09:24;102035.25;;;19.72;42.75
62895;BME280;49204;44.916;37.998;2023-02-28T10:11:52;102043.34;;;19.54;43.07
62895;BME280;49204;44.916;37.998;2023-02-28T10:14:22;102038.80;;;19.40;43.27
62895;BME280;49204;44.916;37.998;2023-02-28T10:16:55;102040.26;;;19.46;43.26
62895;BME280;49204;44.916;37.998;2023-02-28T10:19:46;102039.11;;;19.34;43.37
62895;BME280;49204;44.916;37.998;2023-02-28T10:21:59;102034.16;;;18.95;43.86
62895;BME280;49204;44.916;37.998;2023-02-28T10:27:00;102025.11;;;20.01;42.73
62895;BME280;49204;44.916;37.998;2023-02-28T10:29:28;102021.73;;;20.66;41.89
62895;BME280;49204;44.916;37.998;2023-02-28T10:31:58;102019.27;;;20.70;41.73
62895;BME280;49204;44.916;37.998;2023-02-28T10:34:27;102016.54;;;20.55;41.99
62895;BME280;49204;44.916;37.998;2023-02-28T10:36:54;102012.67;;;20.00;42.42
62895;BME280;49204;44.916;37.998;2023-02-28T10:39:35;102013.41;;;19.95;42.62
62895;BME280;49204;44.916;37.998;2023-02-28T10:42:18;102007.19;;;20.11;42.35
62895;BME280;49204;44.916;37.998;2023-02-28T10:44:35;102004.97;;;20.48;41.93
62895;BME280;49204;44.916;37.998;2023-02-28T10:47:03;102003.86;;;20.95;41.50
62895;BME280;49204;44.916;37.998;2023-02-28T10:49:31;101999.55;;;21.21;41.07
62895;BME280;49204;44.916;37.998;2023-02-28T10:51:59;101997.98;;;21.31;40.88
62895;BME280;49204;44.916;37.998;2023-02-28T10:54:31;102003.66;;;21.27;40.86
62895;BME280;49204;44.916;37.998;2023-02-28T10:57:09;101998.08;;;21.30;40.59
62895;BME280;49204;44.916;37.998;2023-02-28T10:59:37;102003.86;;;21.09;40.58
62895;BME280;49204;44.916;37.998;2023-02-28T11:02:28;102003.86;;;20.95;40.62
62895;BME280;49204;44.916;37.998;2023-02-28T11:04:34;101995.37;;;20.74;40.91
62895;BME280;49204;44.916;37.998;2023-02-28T11:07:20;101992.39;;;20.78;40.86
62895;BME280;49204;44.916;37.998;2023-02-28T11:09:54;101982.84;;;20.74;40.76
62895;BME280;49204;44.916;37.998;2023-02-28T11:12:25;101993.18;;;20.21;41.19
62895;BME280;49204;44.916;37.998;2023-02-28T11:14:53;101994.20;;;20.19;41.34
62895;BME280;49204;44.916;37.998;2023-02-28T11:17:26;101995.95;;;20.34;41.22
62895;BME280;49204;44.916;37.998;2023-02-28T11:19:54;101994.78;;;20.69;40.81
62895;BME280;49204;44.916;37.998;2023-02-28T11:22:24;101997.38;;;20.85;40.63
62895;BME280;49204;44.916;37.998;2023-02-28T11:24:55;101989.70;;;20.57;40.49
62895;BME280;49204;44.916;37.998;2023-02-28T11:29:56;102011.61;;;20.26;40.90
62895;BME280;49204;44.916;37.998;2023-02-28T11:32:25;102006.98;;;20.14;40.99
62895;BME280;49204;44.916;37.998;2023-02-28T11:35:02;102002.27;;;19.96;40.75
62895;BME280;49204;44.916;37.998;2023-02-28T11:37:31;102011.04;;;19.75;41.44
62895;BME280;49204;44.916;37.998;2023-02-28T11:39:59;102010.89;;;19.69;41.32
62895;BME280;49204;44.916;37.998;2023-02-28T11:48:01;102005.85;;;18.57;42.16
62895;BME280;49204;44.916;37.998;2023-02-28T11:50:38;102011.45;;;17.81;42.89
62895;BME280;49204;44.916;37.998;2023-02-28T11:53:04;102013.27;;;17.25;43.59
62895;BME280;49204;44.916;37.998;2023-02-28T11:55:37;102014.55;;;16.87;44.16
62895;BME280;49204;44.916;37.998;2023-02-28T12:06:18;102029.36;;;16.21;45.46
62895;BME280;49204;44.916;37.998;2023-02-28T12:11:33;102039.27;;;16.28;46.10
62895;BME280;49204;44.916;37.998;2023-02-28T12:14:19;102037.44;;;16.40;45.64
62895;BME280;49204;44.916;37.998;2023-02-28T12:16:46;102040.08;;;16.50;46.16
62895;BME280;49204;44.916;37.998;2023-02-28T12:22:04;102047.98;;;16.31;45.93
62895;BME280;49204;44.916;37.998;2023-02-28T12:27:00;102057.20;;;16.12;46.29
62895;BME280;49204;44.916;37.998;2023-02-28T12:29:29;102060.50;;;16.07;46.31
62895;BME280;49204;44.916;37.998;2023-02-28T12:32:05;102054.60;;;16.11;46.31
62895;BME280;49204;44.916;37.998;2023-02-28T12:34:35;102051.38;;;16.02;46.65
62895;BME280;49204;44.916;37.998;2023-02-28T12:37:00;102043.87;;;15.92;47.14
62895;BME280;49204;44.916;37.998;2023-02-28T12:39:48;102049.78;;;15.76;46.90
62895;BME280;49204;44.916;37.998;2023-02-28T12:42:07;102049.01;;;15.73;47.18
62895;BME280;49204;44.916;37.998;2023-02-28T12:44:35;102051.50;;;15.66;47.36
62895;BME280;49204;44.916;37.998;2023-02-28T12:47:04;102049.31;;;15.65;47.17
62895;BME280;49204;44.916;37.998;2023-02-28T12:52:02;102044.57;;;15.51;47.49
62895;BME280;49204;44.916;37.998;2023-02-28T12:54:35;102053.33;;;15.41;47.39
62895;BME280;49204;44.916;37.998;2023-02-28T12:57:12;102043.81;;;15.12;47.72
62895;BME280;49204;44.916;37.998;2023-02-28T12:59:44;102040.70;;;14.89;48.01
62895;BME280;49204;44.916;37.998;2023-02-28T13:02:33;102039.47;;;14.74;48.40
62895;BME280;49204;44.916;37.998;2023-02-28T13:05:06;102045.77;;;14.57;49.35
62895;BME280;49204;44.916;37.998;2023-02-28T13:10:19;102038.81;;;14.54;48.79
62895;BME280;49204;44.916;37.998;2023-02-28T13:12:52;102040.41;;;14.46;48.63
62895;BME280;49204;44.916;37.998;2023-02-28T13:15:25;102042.39;;;14.40;49.42
62895;BME280;49204;44.916;37.998;2023-02-28T13:17:52;102042.06;;;14.24;48.78
62895;BME280;49204;44.916;37.998;2023-02-28T13:20:21;102039.64;;;14.16;49.06
62895;BME280;49204;44.916;37.998;2023-02-28T13:22:50;102044.13;;;13.87;49.14
62895;BME280;49204;44.916;37.998;2023-02-28T13:27:54;102056.96;;;13.43;50.39
62895;BME280;49204;44.916;37.998;2023-02-28T13:33:26;102062.19;;;12.99;50.38
62895;BME280;49204;44.916;37.998;2023-02-28T13:36:29;102061.70;;;12.84;50.41
62895;BME280;49204;44.916;37.998;2023-02-28T13:38:34;102064.63;;;12.73;51.18
62895;BME280;49204;44.916;37.998;2023-02-28T13:47:16;102058.00;;;12.41;50.87
62895;BME280;49204;44.916;37.998;2023-02-28T13:54:55;102059.52;;;12.15;51.48
62895;BME280;49204;44.916;37.998;2023-02-28T13:57:42;102058.58;;;12.00;51.25
62895;BME280;49204;44.916;37.998;2023-02-28T14:05:13;102083.54;;;11.64;52.44
62895;BME280;49204;44.916;37.998;2023-02-28T14:07:48;102081.08;;;11.56;52.04
62895;BME280;49204;44.916;37.998;2023-02-28T14:10:27;102092.42;;;11.40;52.57
62895;BME280;49204;44.916;37.998;2023-02-28T14:12:57;102080.37;;;11.27;52.28
62895;BME280;49204;44.916;37.998;2023-02-28T14:15:30;102079.16;;;11.22;52.43
62895;BME280;49204;44.916;37.998;2023-02-28T14:17:56;102086.21;;;11.22;53.10
62895;BME280;49204;44.916;37.998;2023-02-28T14:20:26;102083.81;;;11.09;53.08
62895;BME280;49204;44.916;37.998;2023-02-28T14:25:37;102085.30;;;11.00;52.65